sensor_id;sensor_type;location;lat;lon;timestamp;P1;durP1;ratioP1;P2;durP2;ratioP2
66425;SDS011;53237;46.158;14.604;2023-02-28T00:00:23;8.55;;;7.43;;
66425;SDS011;53237;46.158;14.604;2023-02-28T00:02:49;9.63;;;8.40;;
66425;SDS011;53237;46.158;14.604;2023-02-28T00:05:16;7.50;;;6.63;;
66425;SDS011;53237;46.158;14.604;2023-02-28T00:07:42;7.78;;;7.03;;
66425;SDS011;53237;46.158;14.604;2023-02-28T00:10:09;8.52;;;7.43;;
66425;SDS011;53237;46.158;14.604;2023-02-28T00:12:36;9.80;;;7.65;;
66425;SDS011;53237;46.158;14.604;2023-02-28T00:15:07;8.00;;;7.15;;
66425;SDS011;53237;46.158;14.604;2023-02-28T00:17:33;9.27;;;7.97;;
66425;SDS011;53237;46.158;14.604;2023-02-28T00:19:59;9.85;;;8.40;;
66425;SDS011;53237;46.158;14.604;2023-02-28T00:22:37;7.93;;;7.07;;
66425;SDS011;53237;46.158;14.604;2023-02-28T00:25:03;9.68;;;7.63;;
66425;SDS011;53237;46.158;14.604;2023-02-28T00:27:30;8.20;;;6.93;;
66425;SDS011;53237;46.158;14.604;2023-02-28T00:29:56;7.43;;;6.50;;
66425;SDS011;53237;46.158;14.604;2023-02-28T00:32:22;7.60;;;6.63;;
66425;SDS011;53237;46.158;14.604;2023-02-28T00:34:48;8.82;;;6.75;;
66425;SDS011;53237;46.158;14.604;2023-02-28T00:37:14;9.13;;;8.18;;
66425;SDS011;53237;46.158;14.604;2023-02-28T00:39:40;7.72;;;6.90;;
66425;SDS011;53237;46.158;14.604;2023-02-28T00:42:06;8.20;;;7.40;;
66425;SDS011;53237;46.158;14.604;2023-02-28T00:44:33;9.02;;;6.93;;
66425;SDS011;53237;46.158;14.604;2023-02-28T00:46:59;10.25;;;8.02;;
66425;SDS011;53237;46.158;14.604;2023-02-28T00:49:26;7.38;;;6.68;;
66425;SDS011;53237;46.158;14.604;2023-02-28T00:51:53;8.30;;;7.50;;
66425;SDS011;53237;46.158;14.604;2023-02-28T00:54:19;10.25;;;8.10;;
66425;SDS011;53237;46.158;14.604;2023-02-28T00:56:45;8.43;;;7.53;;
66425;SDS011;53237;46.158;14.604;2023-02-28T00:59:12;9.30;;;7.88;;
66425;SDS011;53237;46.158;14.604;2023-02-28T01:01:38;8.27;;;7.32;;
66425;SDS011;53237;46.158;14.604;2023-02-28T01:04:04;7.18;;;6.47;;
66425;SDS011;53237;46.158;14.604;2023-02-28T01:06:30;10.07;;;7.63;;
66425;SDS011;53237;46.158;14.604;2023-02-28T01:08:56;8.75;;;7.40;;
66425;SDS011;53237;46.158;14.604;2023-02-28T01:11:23;7.82;;;7.03;;
66425;SDS011;53237;46.158;14.604;2023-02-28T01:13:49;8.00;;;6.93;;
66425;SDS011;53237;46.158;14.604;2023-02-28T01:16:15;8.50;;;7.60;;
66425;SDS011;53237;46.158;14.604;2023-02-28T01:18:41;8.90;;;7.28;;
66425;SDS011;53237;46.158;14.604;2023-02-28T01:21:09;9.35;;;8.32;;
66425;SDS011;53237;46.158;14.604;2023-02-28T01:23:37;8.18;;;7.13;;
66425;SDS011;53237;46.158;14.604;2023-02-28T01:26:06;8.82;;;7.95;;
66425;SDS011;53237;46.158;14.604;2023-02-28T01:28:33;8.32;;;7.30;;
66425;SDS011;53237;46.158;14.604;2023-02-28T01:30:59;9.60;;;7.32;;
66425;SDS011;53237;46.158;14.604;2023-02-28T01:33:25;7.80;;;7.00;;
66425;SDS011;53237;46.158;14.604;2023-02-28T01:35:57;8.57;;;7.57;;
66425;SDS011;53237;46.158;14.604;2023-02-28T01:38:23;8.60;;;7.18;;
66425;SDS011;53237;46.158;14.604;2023-02-28T01:40:50;9.07;;;8.10;;
66425;SDS011;53237;46.158;14.604;2023-02-28T01:43:20;9.63;;;7.68;;
66425;SDS011;53237;46.158;14.604;2023-02-28T01:45:47;7.28;;;6.53;;
66425;SDS011;53237;46.158;14.604;2023-02-28T01:48:13;7.88;;;6.90;;
66425;SDS011;53237;46.158;14.604;2023-02-28T01:50:41;7.28;;;6.57;;
66425;SDS011;53237;46.158;14.604;2023-02-28T01:53:10;9.65;;;8.02;;
66425;SDS011;53237;46.158;14.604;2023-02-28T01:55:39;10.10;;;8.30;;
66425;SDS011;53237;46.158;14.604;2023-02-28T01:58:06;10.57;;;8.43;;
66425;SDS011;53237;46.158;14.604;2023-02-28T02:00:34;9.07;;;8.07;;
66425;SDS011;53237;46.158;14.604;2023-02-28T02:03:08;9.00;;;7.70;;
66425;SDS011;53237;46.158;14.604;2023-02-28T02:05:34;10.00;;;8.73;;
66425;SDS011;53237;46.158;14.604;2023-02-28T02:08:03;9.10;;;8.15;;
66425;SDS011;53237;46.158;14.604;2023-02-28T02:15:35;12.40;;;8.85;;
66425;SDS011;53237;46.158;14.604;2023-02-28T02:18:13;9.45;;;7.50;;
66425;SDS011;53237;46.158;14.604;2023-02-28T02:20:54;11.45;;;7.93;;
66425;SDS011;53237;46.158;14.604;2023-02-28T02:26:15;9.52;;;8.63;;
66425;SDS011;53237;46.158;14.604;2023-02-28T02:36:23;8.38;;;7.45;;
66425;SDS011;53237;46.158;14.604;2023-02-28T02:38:52;9.87;;;8.50;;
66425;SDS011;53237;46.158;14.604;2023-02-28T02:41:26;10.15;;;9.15;;
66425;SDS011;53237;46.158;14.604;2023-02-28T02:46:28;9.32;;;8.23;;
66425;SDS011;53237;46.158;14.604;2023-02-28T02:48:54;8.55;;;7.47;;
66425;SDS011;53237;46.158;14.604;2023-02-28T02:51:21;8.82;;;8.00;;
66425;SDS011;53237;46.158;14.604;2023-02-28T02:53:58;9.50;;;7.82;;
66425;SDS011;53237;46.158;14.604;2023-02-28T02:56:26;10.77;;;9.20;;
66425;SDS011;53237;46.158;14.604;2023-02-28T02:58:54;9.48;;;7.35;;
66425;SDS011;53237;46.158;14.604;2023-02-28T03:01:23;9.68;;;8.60;;
66425;SDS011;53237;46.158;14.604;2023-02-28T03:04:03;9.37;;;8.17;;
66425;SDS011;53237;46.158;14.604;2023-02-28T03:06:30;10.55;;;8.40;;
66425;SDS011;53237;46.158;14.604;2023-02-28T03:08:56;8.88;;;7.95;;
66425;SDS011;53237;46.158;14.604;2023-02-28T03:11:22;8.90;;;7.82;;
66425;SDS011;53237;46.158;14.604;2023-02-28T03:21:38;9.40;;;8.52;;
66425;SDS011;53237;46.158;14.604;2023-02-28T03:26:36;8.80;;;7.90;;
66425;SDS011;53237;46.158;14.604;2023-02-28T03:29:07;12.10;;;8.93;;
66425;SDS011;53237;46.158;14.604;2023-02-28T03:31:41;7.95;;;7.18;;
66425;SDS011;53237;46.158;14.604;2023-02-28T03:36:38;8.82;;;7.93;;
66425;SDS011;53237;46.158;14.604;2023-02-28T03:39:10;9.93;;;8.70;;
66425;SDS011;53237;46.158;14.604;2023-02-28T03:41:42;8.60;;;7.45;;
66425;SDS011;53237;46.158;14.604;2023-02-28T03:44:13;8.02;;;7.22;;
66425;SDS011;53237;46.158;14.604;2023-02-28T03:46:43;9.98;;;9.02;;
66425;SDS011;53237;46.158;14.604;2023-02-28T03:49:14;9.93;;;7.65;;
66425;SDS011;53237;46.158;14.604;2023-02-28T03:51:42;10.75;;;8.02;;
66425;SDS011;53237;46.158;14.604;2023-02-28T03:54:10;9.07;;;8.10;;
66425;SDS011;53237;46.158;14.604;2023-02-28T03:56:39;8.75;;;7.85;;
66425;SDS011;53237;46.158;14.604;2023-02-28T03:59:12;7.40;;;6.65;;
66425;SDS011;53237;46.158;14.604;2023-02-28T04:01:40;9.18;;;8.20;;
66425;SDS011;53237;46.158;14.604;2023-02-28T04:04:08;10.43;;;9.02;;
66425;SDS011;53237;46.158;14.604;2023-02-28T04:06:35;9.02;;;8.13;;
66425;SDS011;53237;46.158;14.604;2023-02-28T04:09:02;10.55;;;8.90;;
66425;SDS011;53237;46.158;14.604;2023-02-28T04:11:38;9.43;;;8.52;;
66425;SDS011;53237;46.158;14.604;2023-02-28T04:14:05;8.55;;;7.63;;
66425;SDS011;53237;46.158;14.604;2023-02-28T04:16:32;8.40;;;7.53;;
66425;SDS011;53237;46.158;14.604;2023-02-28T04:18:58;9.70;;;8.65;;
66425;SDS011;53237;46.158;14.604;2023-02-28T04:21:34;9.43;;;8.15;;
66425;SDS011;53237;46.158;14.604;2023-02-28T04:24:00;9.82;;;8.77;;
66425;SDS011;53237;46.158;14.604;2023-02-28T04:26:30;8.52;;;7.28;;
66425;SDS011;53237;46.158;14.604;2023-02-28T04:28:56;10.05;;;8.75;;
66425;SDS011;53237;46.158;14.604;2023-02-28T04:31:22;10.15;;;8.38;;
66425;SDS011;53237;46.158;14.604;2023-02-28T04:33:48;9.82;;;8.85;;
66425;SDS011;53237;46.158;14.604;2023-02-28T04:36:14;9.13;;;7.78;;
66425;SDS011;53237;46.158;14.604;2023-02-28T04:38:42;8.85;;;7.72;;
66425;SDS011;53237;46.158;14.604;2023-02-28T04:41:09;11.45;;;8.43;;
66425;SDS011;53237;46.158;14.604;2023-02-28T04:43:35;11.02;;;8.88;;
66425;SDS011;53237;46.158;14.604;2023-02-28T04:46:03;10.57;;;9.25;;
66425;SDS011;53237;46.158;14.604;2023-02-28T04:48:30;8.57;;;7.63;;
66425;SDS011;53237;46.158;14.604;2023-02-28T04:51:15;11.20;;;9.18;;
66425;SDS011;53237;46.158;14.604;2023-02-28T04:53:42;10.68;;;9.63;;
66425;SDS011;53237;46.158;14.604;2023-02-28T04:56:10;11.48;;;8.75;;
66425;SDS011;53237;46.158;14.604;2023-02-28T04:58:37;9.70;;;8.60;;
66425;SDS011;53237;46.158;14.604;2023-02-28T05:01:04;10.52;;;9.30;;
66425;SDS011;53237;46.158;14.604;2023-02-28T05:03:37;10.32;;;9.02;;
66425;SDS011;53237;46.158;14.604;2023-02-28T05:06:05;11.10;;;8.68;;
66425;SDS011;53237;46.158;14.604;2023-02-28T05:08:31;12.48;;;9.60;;
66425;SDS011;53237;46.158;14.604;2023-02-28T05:10:57;9.90;;;8.68;;
66425;SDS011;53237;46.158;14.604;2023-02-28T05:13:25;13.27;;;9.27;;
66425;SDS011;53237;46.158;14.604;2023-02-28T05:15:51;11.38;;;9.77;;
66425;SDS011;53237;46.158;14.604;2023-02-28T05:18:17;11.07;;;9.15;;
66425;SDS011;53237;46.158;14.604;2023-02-28T05:20:43;13.35;;;9.95;;
66425;SDS011;53237;46.158;14.604;2023-02-28T05:23:13;10.32;;;9.27;;
66425;SDS011;53237;46.158;14.604;2023-02-28T05:25:40;10.80;;;8.93;;
66425;SDS011;53237;46.158;14.604;2023-02-28T05:28:06;8.40;;;7.50;;
66425;SDS011;53237;46.158;14.604;2023-02-28T05:30:33;10.75;;;8.50;;
66425;SDS011;53237;46.158;14.604;2023-02-28T05:32:59;9.32;;;7.50;;
66425;SDS011;53237;46.158;14.604;2023-02-28T05:35:25;9.48;;;8.07;;
66425;SDS011;53237;46.158;14.604;2023-02-28T05:37:51;11.73;;;9.85;;
66425;SDS011;53237;46.158;14.604;2023-02-28T05:40:17;12.75;;;10.57;;
66425;SDS011;53237;46.158;14.604;2023-02-28T05:42:45;13.05;;;10.20;;
66425;SDS011;53237;46.158;14.604;2023-02-28T05:45:11;11.40;;;9.27;;
66425;SDS011;53237;46.158;14.604;2023-02-28T05:47:37;12.25;;;10.50;;
66425;SDS011;53237;46.158;14.604;2023-02-28T05:50:04;10.38;;;8.43;;
66425;SDS011;53237;46.158;14.604;2023-02-28T05:52:30;11.63;;;9.82;;
66425;SDS011;53237;46.158;14.604;2023-02-28T05:54:56;9.30;;;8.27;;
66425;SDS011;53237;46.158;14.604;2023-02-28T05:57:22;10.10;;;9.07;;
66425;SDS011;53237;46.158;14.604;2023-02-28T05:59:48;11.00;;;9.00;;
66425;SDS011;53237;46.158;14.604;2023-02-28T06:02:16;9.13;;;8.23;;
66425;SDS011;53237;46.158;14.604;2023-02-28T06:04:42;11.05;;;9.90;;
66425;SDS011;53237;46.158;14.604;2023-02-28T06:07:08;14.25;;;10.70;;
66425;SDS011;53237;46.158;14.604;2023-02-28T06:09:35;11.85;;;10.27;;
66425;SDS011;53237;46.158;14.604;2023-02-28T06:12:02;11.85;;;9.63;;
66425;SDS011;53237;46.158;14.604;2023-02-28T06:14:30;10.00;;;8.73;;
66425;SDS011;53237;46.158;14.604;2023-02-28T06:16:57;12.15;;;10.30;;
66425;SDS011;53237;46.158;14.604;2023-02-28T06:19:23;11.93;;;9.75;;
66425;SDS011;53237;46.158;14.604;2023-02-28T06:21:50;10.10;;;8.70;;
66425;SDS011;53237;46.158;14.604;2023-02-28T06:24:17;12.45;;;9.32;;
66425;SDS011;53237;46.158;14.604;2023-02-28T06:26:43;10.45;;;8.80;;
66425;SDS011;53237;46.158;14.604;2023-02-28T06:29:09;12.35;;;9.93;;
66425;SDS011;53237;46.158;14.604;2023-02-28T06:31:35;11.48;;;10.32;;
66425;SDS011;53237;46.158;14.604;2023-02-28T06:34:01;11.35;;;9.70;;
66425;SDS011;53237;46.158;14.604;2023-02-28T06:36:27;11.50;;;9.20;;
66425;SDS011;53237;46.158;14.604;2023-02-28T06:38:53;10.00;;;9.00;;
66425;SDS011;53237;46.158;14.604;2023-02-28T06:41:24;12.45;;;9.82;;
66425;SDS011;53237;46.158;14.604;2023-02-28T06:43:50;13.15;;;10.68;;
66425;SDS011;53237;46.158;14.604;2023-02-28T06:46:17;10.30;;;8.60;;
66425;SDS011;53237;46.158;14.604;2023-02-28T06:48:43;11.98;;;9.57;;
66425;SDS011;53237;46.158;14.604;2023-02-28T06:51:11;9.55;;;8.50;;
66425;SDS011;53237;46.158;14.604;2023-02-28T06:53:38;12.10;;;8.93;;
66425;SDS011;53237;46.158;14.604;2023-02-28T06:56:08;13.32;;;11.10;;
66425;SDS011;53237;46.158;14.604;2023-02-28T06:58:35;13.10;;;11.18;;
66425;SDS011;53237;46.158;14.604;2023-02-28T07:01:01;11.38;;;10.15;;
66425;SDS011;53237;46.158;14.604;2023-02-28T07:03:27;11.35;;;9.80;;
66425;SDS011;53237;46.158;14.604;2023-02-28T07:05:53;11.85;;;10.20;;
66425;SDS011;53237;46.158;14.604;2023-02-28T07:08:21;13.02;;;10.75;;
66425;SDS011;53237;46.158;14.604;2023-02-28T07:10:47;13.80;;;10.77;;
66425;SDS011;53237;46.158;14.604;2023-02-28T07:13:13;12.38;;;10.82;;
66425;SDS011;53237;46.158;14.604;2023-02-28T07:15:39;12.23;;;10.02;;
66425;SDS011;53237;46.158;14.604;2023-02-28T07:18:05;13.10;;;10.63;;
66425;SDS011;53237;46.158;14.604;2023-02-28T07:20:31;13.30;;;10.63;;
66425;SDS011;53237;46.158;14.604;2023-02-28T07:22:57;12.18;;;9.32;;
66425;SDS011;53237;46.158;14.604;2023-02-28T07:25:24;13.93;;;10.68;;
66425;SDS011;53237;46.158;14.604;2023-02-28T07:27:50;11.23;;;9.90;;
66425;SDS011;53237;46.158;14.604;2023-02-28T07:30:16;11.30;;;10.10;;
66425;SDS011;53237;46.158;14.604;2023-02-28T07:32:42;15.55;;;11.82;;
66425;SDS011;53237;46.158;14.604;2023-02-28T07:35:08;10.93;;;9.40;;
66425;SDS011;53237;46.158;14.604;2023-02-28T07:37:34;13.25;;;11.05;;
66425;SDS011;53237;46.158;14.604;2023-02-28T07:40:02;11.02;;;9.88;;
66425;SDS011;53237;46.158;14.604;2023-02-28T07:42:31;11.20;;;10.00;;
66425;SDS011;53237;46.158;14.604;2023-02-28T07:44:57;15.13;;;11.77;;
66425;SDS011;53237;46.158;14.604;2023-02-28T07:47:24;11.68;;;9.85;;
66425;SDS011;53237;46.158;14.604;2023-02-28T07:49:50;11.95;;;9.93;;
66425;SDS011;53237;46.158;14.604;2023-02-28T07:52:16;12.55;;;10.18;;
66425;SDS011;53237;46.158;14.604;2023-02-28T07:54:42;13.45;;;10.65;;
66425;SDS011;53237;46.158;14.604;2023-02-28T07:57:08;15.50;;;12.30;;
66425;SDS011;53237;46.158;14.604;2023-02-28T07:59:34;11.32;;;10.10;;
66425;SDS011;53237;46.158;14.604;2023-02-28T08:02:00;14.27;;;10.68;;
66425;SDS011;53237;46.158;14.604;2023-02-28T08:04:26;12.30;;;10.52;;
66425;SDS011;53237;46.158;14.604;2023-02-28T08:06:53;15.55;;;11.43;;
66425;SDS011;53237;46.158;14.604;2023-02-28T08:09:21;13.25;;;10.90;;
66425;SDS011;53237;46.158;14.604;2023-02-28T08:11:47;12.70;;;10.43;;
66425;SDS011;53237;46.158;14.604;2023-02-28T08:14:13;14.50;;;11.52;;
66425;SDS011;53237;46.158;14.604;2023-02-28T08:16:39;14.40;;;11.60;;
66425;SDS011;53237;46.158;14.604;2023-02-28T08:19:06;13.18;;;10.70;;
66425;SDS011;53237;46.158;14.604;2023-02-28T08:21:32;11.48;;;9.82;;
66425;SDS011;53237;46.158;14.604;2023-02-28T08:23:58;12.57;;;10.45;;
66425;SDS011;53237;46.158;14.604;2023-02-28T08:26:24;16.63;;;12.45;;
66425;SDS011;53237;46.158;14.604;2023-02-28T08:28:50;13.18;;;10.32;;
66425;SDS011;53237;46.158;14.604;2023-02-28T08:31:17;17.98;;;12.57;;
66425;SDS011;53237;46.158;14.604;2023-02-28T08:33:43;15.77;;;12.15;;
66425;SDS011;53237;46.158;14.604;2023-02-28T08:36:10;15.30;;;11.93;;
66425;SDS011;53237;46.158;14.604;2023-02-28T08:38:36;16.98;;;12.93;;
66425;SDS011;53237;46.158;14.604;2023-02-28T08:41:06;14.02;;;11.35;;
66425;SDS011;53237;46.158;14.604;2023-02-28T08:43:33;16.33;;;12.20;;
66425;SDS011;53237;46.158;14.604;2023-02-28T08:45:59;12.73;;;10.85;;
66425;SDS011;53237;46.158;14.604;2023-02-28T08:48:26;18.27;;;12.60;;
66425;SDS011;53237;46.158;14.604;2023-02-28T08:50:59;11.93;;;10.63;;
66425;SDS011;53237;46.158;14.604;2023-02-28T08:53:26;12.88;;;11.27;;
66425;SDS011;53237;46.158;14.604;2023-02-28T08:55:57;13.15;;;11.65;;
66425;SDS011;53237;46.158;14.604;2023-02-28T08:58:23;12.93;;;11.55;;
66425;SDS011;53237;46.158;14.604;2023-02-28T09:00:50;13.15;;;10.90;;
66425;SDS011;53237;46.158;14.604;2023-02-28T09:03:16;15.40;;;11.82;;
66425;SDS011;53237;46.158;14.604;2023-02-28T09:05:51;13.73;;;10.18;;
66425;SDS011;53237;46.158;14.604;2023-02-28T09:08:17;11.50;;;10.25;;
66425;SDS011;53237;46.158;14.604;2023-02-28T09:10:43;13.65;;;11.35;;
66425;SDS011;53237;46.158;14.604;2023-02-28T09:13:09;11.60;;;10.25;;
66425;SDS011;53237;46.158;14.604;2023-02-28T09:15:37;13.63;;;11.02;;
66425;SDS011;53237;46.158;14.604;2023-02-28T09:18:03;11.27;;;9.98;;
66425;SDS011;53237;46.158;14.604;2023-02-28T09:20:29;11.00;;;9.85;;
66425;SDS011;53237;46.158;14.604;2023-02-28T09:22:55;10.48;;;9.38;;
66425;SDS011;53237;46.158;14.604;2023-02-28T09:25:21;12.15;;;10.90;;
66425;SDS011;53237;46.158;14.604;2023-02-28T09:27:47;16.65;;;13.15;;
66425;SDS011;53237;46.158;14.604;2023-02-28T09:30:13;12.07;;;10.75;;
66425;SDS011;53237;46.158;14.604;2023-02-28T09:32:39;13.35;;;11.50;;
66425;SDS011;53237;46.158;14.604;2023-02-28T09:35:05;10.30;;;9.20;;
66425;SDS011;53237;46.158;14.604;2023-02-28T09:37:31;11.20;;;9.55;;
66425;SDS011;53237;46.158;14.604;2023-02-28T09:39:57;11.98;;;10.40;;
66425;SDS011;53237;46.158;14.604;2023-02-28T09:42:27;11.52;;;9.45;;
66425;SDS011;53237;46.158;14.604;2023-02-28T09:44:56;11.40;;;10.23;;
66425;SDS011;53237;46.158;14.604;2023-02-28T09:49:50;12.75;;;10.93;;
66425;SDS011;53237;46.158;14.604;2023-02-28T09:52:20;10.13;;;9.02;;
66425;SDS011;53237;46.158;14.604;2023-02-28T09:54:47;9.82;;;8.52;;
66425;SDS011;53237;46.158;14.604;2023-02-28T09:57:16;12.07;;;10.43;;
66425;SDS011;53237;46.158;14.604;2023-02-28T10:02:47;9.20;;;8.30;;
66425;SDS011;53237;46.158;14.604;2023-02-28T10:05:26;10.68;;;9.40;;
66425;SDS011;53237;46.158;14.604;2023-02-28T10:10:21;11.85;;;10.23;;
66425;SDS011;53237;46.158;14.604;2023-02-28T10:12:48;11.23;;;10.02;;
66425;SDS011;53237;46.158;14.604;2023-02-28T10:15:16;10.13;;;9.00;;
66425;SDS011;53237;46.158;14.604;2023-02-28T10:17:44;11.32;;;10.13;;
66425;SDS011;53237;46.158;14.604;2023-02-28T10:20:11;9.80;;;8.77;;
66425;SDS011;53237;46.158;14.604;2023-02-28T10:27:36;14.55;;;11.50;;
66425;SDS011;53237;46.158;14.604;2023-02-28T10:30:03;13.45;;;11.52;;
66425;SDS011;53237;46.158;14.604;2023-02-28T10:32:30;12.02;;;10.70;;
66425;SDS011;53237;46.158;14.604;2023-02-28T10:35:01;13.27;;;11.13;;
66425;SDS011;53237;46.158;14.604;2023-02-28T10:37:32;12.00;;;10.73;;
66425;SDS011;53237;46.158;14.604;2023-02-28T10:40:03;12.48;;;10.82;;
66425;SDS011;53237;46.158;14.604;2023-02-28T10:42:30;13.77;;;12.07;;
66425;SDS011;53237;46.158;14.604;2023-02-28T10:45:13;17.52;;;13.27;;
66425;SDS011;53237;46.158;14.604;2023-02-28T10:47:50;15.13;;;12.95;;
66425;SDS011;53237;46.158;14.604;2023-02-28T10:58:24;16.67;;;13.05;;
66425;SDS011;53237;46.158;14.604;2023-02-28T11:00:50;14.20;;;11.57;;
66425;SDS011;53237;46.158;14.604;2023-02-28T11:05:55;14.73;;;12.30;;
66425;SDS011;53237;46.158;14.604;2023-02-28T11:08:22;14.05;;;12.15;;
66425;SDS011;53237;46.158;14.604;2023-02-28T11:10:59;13.65;;;11.70;;
66425;SDS011;53237;46.158;14.604;2023-02-28T11:13:33;14.80;;;12.98;;
66425;SDS011;53237;46.158;14.604;2023-02-28T11:16:00;13.88;;;12.02;;
66425;SDS011;53237;46.158;14.604;2023-02-28T11:18:40;15.75;;;13.02;;
66425;SDS011;53237;46.158;14.604;2023-02-28T11:21:06;14.18;;;12.68;;
66425;SDS011;53237;46.158;14.604;2023-02-28T11:23:34;16.63;;;13.57;;
66425;SDS011;53237;46.158;14.604;2023-02-28T11:26:02;13.27;;;11.80;;
66425;SDS011;53237;46.158;14.604;2023-02-28T11:28:36;12.10;;;10.60;;
66425;SDS011;53237;46.158;14.604;2023-02-28T11:36:11;13.55;;;12.13;;
66425;SDS011;53237;46.158;14.604;2023-02-28T11:38:38;14.85;;;12.35;;
66425;SDS011;53237;46.158;14.604;2023-02-28T11:41:07;14.75;;;12.25;;
66425;SDS011;53237;46.158;14.604;2023-02-28T11:56:47;13.45;;;11.48;;
66425;SDS011;53237;46.158;14.604;2023-02-28T12:07:21;18.88;;;13.43;;
66425;SDS011;53237;46.158;14.604;2023-02-28T12:20:21;14.18;;;11.77;;
66425;SDS011;53237;46.158;14.604;2023-02-28T12:22:53;15.23;;;12.98;;
66425;SDS011;53237;46.158;14.604;2023-02-28T12:25:48;14.73;;;12.55;;
66425;SDS011;53237;46.158;14.604;2023-02-28T12:28:13;13.65;;;11.75;;
66425;SDS011;53237;46.158;14.604;2023-02-28T12:30:50;15.13;;;12.40;;
66425;SDS011;53237;46.158;14.604;2023-02-28T12:33:16;15.25;;;12.38;;
66425;SDS011;53237;46.158;14.604;2023-02-28T12:35:52;14.00;;;11.68;;
66425;SDS011;53237;46.158;14.604;2023-02-28T12:41:09;12.55;;;10.70;;
66425;SDS011;53237;46.158;14.604;2023-02-28T12:43:40;12.90;;;11.43;;
66425;SDS011;53237;46.158;14.604;2023-02-28T12:46:11;13.23;;;11.48;;
66425;SDS011;53237;46.158;14.604;2023-02-28T12:48:48;9.98;;;8.95;;
66425;SDS011;53237;46.158;14.604;2023-02-28T12:51:16;11.68;;;10.00;;
66425;SDS011;53237;46.158;14.604;2023-02-28T12:56:14;12.13;;;10.55;;
66425;SDS011;53237;46.158;14.604;2023-02-28T12:58:58;13.95;;;11.75;;
66425;SDS011;53237;46.158;14.604;2023-02-28T13:09:35;12.95;;;11.63;;
66425;SDS011;53237;46.158;14.604;2023-02-28T13:12:04;12.48;;;11.20;;
66425;SDS011;53237;46.158;14.604;2023-02-28T13:14:37;11.00;;;9.90;;
66425;SDS011;53237;46.158;14.604;2023-02-28T13:22:02;12.40;;;10.88;;
66425;SDS011;53237;46.158;14.604;2023-02-28T13:24:50;11.95;;;10.75;;
66425;SDS011;53237;46.158;14.604;2023-02-28T13:27:38;13.95;;;12.50;;
66425;SDS011;53237;46.158;14.604;2023-02-28T13:33:09;11.15;;;9.98;;
66425;SDS011;53237;46.158;14.604;2023-02-28T13:35:36;12.65;;;10.80;;
66425;SDS011;53237;46.158;14.604;2023-02-28T13:38:15;11.65;;;10.55;;
66425;SDS011;53237;46.158;14.604;2023-02-28T13:40:41;10.82;;;9.73;;
66425;SDS011;53237;46.158;14.604;2023-02-28T13:43:08;10.55;;;9.55;;
66425;SDS011;53237;46.158;14.604;2023-02-28T13:45:34;11.45;;;10.25;;
66425;SDS011;53237;46.158;14.604;2023-02-28T13:48:14;12.10;;;10.80;;
66425;SDS011;53237;46.158;14.604;2023-02-28T13:50:41;10.57;;;9.57;;
66425;SDS011;53237;46.158;14.604;2023-02-28T14:03:45;12.90;;;11.60;;
66425;SDS011;53237;46.158;14.604;2023-02-28T14:09:32;13.07;;;11.70;;
66425;SDS011;53237;46.158;14.604;2023-02-28T14:11:41;12.05;;;10.82;;
66425;SDS011;53237;46.158;14.604;2023-02-28T14:14:08;14.77;;;12.95;;
66425;SDS011;53237;46.158;14.604;2023-02-28T14:16:43;14.35;;;12.85;;
66425;SDS011;53237;46.158;14.604;2023-02-28T14:37:27;13.32;;;11.93;;
66425;SDS011;53237;46.158;14.604;2023-02-28T14:39:54;12.50;;;11.18;;
66425;SDS011;53237;46.158;14.604;2023-02-28T14:42:37;13.18;;;11.77;;
66425;SDS011;53237;46.158;14.604;2023-02-28T14:45:17;15.65;;;12.73;;
66425;SDS011;53237;46.158;14.604;2023-02-28T14:47:43;12.98;;;11.68;;
66425;SDS011;53237;46.158;14.604;2023-02-28T14:50:17;14.18;;;12.65;;
66425;SDS011;53237;46.158;14.604;2023-02-28T14:52:43;15.13;;;13.43;;
66425;SDS011;53237;46.158;14.604;2023-02-28T14:55:13;13.43;;;12.02;;
66425;SDS011;53237;46.158;14.604;2023-02-28T14:57:41;12.88;;;11.57;;
66425;SDS011;53237;46.158;14.604;2023-02-28T15:02:36;14.30;;;12.77;;
66425;SDS011;53237;46.158;14.604;2023-02-28T15:07:37;15.32;;;13.73;;
66425;SDS011;53237;46.158;14.604;2023-02-28T15:12:33;17.05;;;14.57;;
66425;SDS011;53237;46.158;14.604;2023-02-28T15:15:00;14.15;;;12.65;;
66425;SDS011;53237;46.158;14.604;2023-02-28T15:17:26;15.80;;;13.45;;
66425;SDS011;53237;46.158;14.604;2023-02-28T15:19:52;15.90;;;13.98;;
66425;SDS011;53237;46.158;14.604;2023-02-28T15:22:21;17.85;;;14.63;;
66425;SDS011;53237;46.158;14.604;2023-02-28T15:24:53;13.90;;;12.25;;
66425;SDS011;53237;46.158;14.604;2023-02-28T15:27:23;14.88;;;13.38;;
66425;SDS011;53237;46.158;14.604;2023-02-28T15:29:53;20.10;;;15.32;;
66425;SDS011;53237;46.158;14.604;2023-02-28T15:32:31;17.30;;;15.05;;
66425;SDS011;53237;46.158;14.604;2023-02-28T15:34:57;16.33;;;14.57;;
66425;SDS011;53237;46.158;14.604;2023-02-28T15:37:33;14.77;;;12.95;;
66425;SDS011;53237;46.158;14.604;2023-02-28T15:40:17;14.57;;;12.63;;
66425;SDS011;53237;46.158;14.604;2023-02-28T15:42:57;15.27;;;13.00;;
66425;SDS011;53237;46.158;14.604;2023-02-28T15:45:30;17.85;;;14.07;;
66425;SDS011;53237;46.158;14.604;2023-02-28T15:47:59;16.17;;;13.85;;
66425;SDS011;53237;46.158;14.604;2023-02-28T15:50:27;15.35;;;13.43;;
66425;SDS011;53237;46.158;14.604;2023-02-28T15:52:53;14.52;;;12.10;;
66425;SDS011;53237;46.158;14.604;2023-02-28T15:55:20;15.93;;;13.15;;
66425;SDS011;53237;46.158;14.604;2023-02-28T15:57:48;17.67;;;13.70;;
66425;SDS011;53237;46.158;14.604;2023-02-28T16:00:18;16.95;;;15.15;;
66425;SDS011;53237;46.158;14.604;2023-02-28T16:02:45;16.25;;;14.05;;
66425;SDS011;53237;46.158;14.604;2023-02-28T16:07:40;13.55;;;11.35;;
66425;SDS011;53237;46.158;14.604;2023-02-28T16:10:06;21.40;;;16.13;;
66425;SDS011;53237;46.158;14.604;2023-02-28T16:12:35;18.20;;;14.95;;
66425;SDS011;53237;46.158;14.604;2023-02-28T16:15:02;24.38;;;17.65;;
66425;SDS011;53237;46.158;14.604;2023-02-28T16:17:33;30.08;;;20.17;;
66425;SDS011;53237;46.158;14.604;2023-02-28T16:19:59;26.60;;;18.50;;
66425;SDS011;53237;46.158;14.604;2023-02-28T16:22:25;22.73;;;17.25;;
66425;SDS011;53237;46.158;14.604;2023-02-28T16:24:51;22.38;;;17.60;;
66425;SDS011;53237;46.158;14.604;2023-02-28T16:27:19;21.45;;;17.23;;
66425;SDS011;53237;46.158;14.604;2023-02-28T16:29:46;23.38;;;17.85;;
66425;SDS011;53237;46.158;14.604;2023-02-28T16:32:15;17.77;;;14.80;;
66425;SDS011;53237;46.158;14.604;2023-02-28T16:34:42;21.35;;;16.52;;
66425;SDS011;53237;46.158;14.604;2023-02-28T16:37:10;23.83;;;16.98;;
66425;SDS011;53237;46.158;14.604;2023-02-28T16:39:36;18.20;;;15.32;;
66425;SDS011;53237;46.158;14.604;2023-02-28T16:42:02;23.90;;;18.02;;
66425;SDS011;53237;46.158;14.604;2023-02-28T16:44:29;20.38;;;16.45;;
66425;SDS011;53237;46.158;14.604;2023-02-28T16:46:57;20.75;;;16.42;;
66425;SDS011;53237;46.158;14.604;2023-02-28T16:49:25;23.27;;;17.88;;
66425;SDS011;53237;46.158;14.604;2023-02-28T16:51:51;20.13;;;16.30;;
66425;SDS011;53237;46.158;14.604;2023-02-28T16:54:18;19.35;;;15.50;;
66425;SDS011;53237;46.158;14.604;2023-02-28T16:56:45;20.45;;;16.88;;
66425;SDS011;53237;46.158;14.604;2023-02-28T16:59:12;22.73;;;17.45;;